sensor_id;sensor_type;location;lat;lon;timestamp;P1;durP1;ratioP1;P2;durP2;ratioP2
46701;SDS011;33449;50.712;7.124;2023-03-01T00:02:24;25.98;;;12.57;;
46701;SDS011;33449;50.712;7.124;2023-03-01T00:04:54;25.93;;;13.07;;
46701;SDS011;33449;50.712;7.124;2023-03-01T00:07:21;25.35;;;11.57;;
46701;SDS011;33449;50.712;7.124;2023-03-01T00:09:49;22.00;;;11.80;;
46701;SDS011;33449;50.712;7.124;2023-03-01T00:12:16;23.88;;;12.75;;
46701;SDS011;33449;50.712;7.124;2023-03-01T00:14:44;26.27;;;12.15;;
46701;SDS011;33449;50.712;7.124;2023-03-01T00:17:17;22.52;;;11.35;;
46701;SDS011;33449;50.712;7.124;2023-03-01T00:19:44;22.67;;;12.20;;
46701;SDS011;33449;50.712;7.124;2023-03-01T00:22:13;22.15;;;11.80;;
46701;SDS011;33449;50.712;7.124;2023-03-01T00:24:41;18.45;;;10.25;;
46701;SDS011;33449;50.712;7.124;2023-03-01T00:27:10;21.58;;;11.10;;
46701;SDS011;33449;50.712;7.124;2023-03-01T00:29:37;23.98;;;11.40;;
46701;SDS011;33449;50.712;7.124;2023-03-01T00:32:05;24.75;;;10.68;;
46701;SDS011;33449;50.712;7.124;2023-03-01T00:34:32;26.05;;;11.48;;
46701;SDS011;33449;50.712;7.124;2023-03-01T00:37:00;22.70;;;11.65;;
46701;SDS011;33449;50.712;7.124;2023-03-01T00:39:31;23.83;;;11.25;;
46701;SDS011;33449;50.712;7.124;2023-03-01T00:41:59;23.00;;;11.25;;
46701;SDS011;33449;50.712;7.124;2023-03-01T00:44:26;34.13;;;12.43;;
46701;SDS011;33449;50.712;7.124;2023-03-01T00:46:54;26.20;;;12.00;;
46701;SDS011;33449;50.712;7.124;2023-03-01T00:49:22;24.08;;;12.55;;
46701;SDS011;33449;50.712;7.124;2023-03-01T00:51:50;21.23;;;11.95;;
46701;SDS011;33449;50.712;7.124;2023-03-01T00:54:18;23.88;;;11.60;;
46701;SDS011;33449;50.712;7.124;2023-03-01T00:56:45;19.35;;;10.88;;
46701;SDS011;33449;50.712;7.124;2023-03-01T00:59:12;25.20;;;12.45;;
46701;SDS011;33449;50.712;7.124;2023-03-01T01:01:40;27.55;;;12.13;;
46701;SDS011;33449;50.712;7.124;2023-03-01T01:04:13;20.83;;;10.98;;
46701;SDS011;33449;50.712;7.124;2023-03-01T01:09:09;21.42;;;12.30;;
46701;SDS011;33449;50.712;7.124;2023-03-01T01:11:50;23.77;;;13.05;;
46701;SDS011;33449;50.712;7.124;2023-03-01T01:14:18;23.70;;;11.65;;
46701;SDS011;33449;50.712;7.124;2023-03-01T01:16:46;23.13;;;12.80;;
46701;SDS011;33449;50.712;7.124;2023-03-01T01:19:13;26.38;;;12.80;;
46701;SDS011;33449;50.712;7.124;2023-03-01T01:21:40;26.80;;;11.93;;
46701;SDS011;33449;50.712;7.124;2023-03-01T01:24:11;26.70;;;13.07;;
46701;SDS011;33449;50.712;7.124;2023-03-01T01:26:38;23.92;;;12.48;;
46701;SDS011;33449;50.712;7.124;2023-03-01T01:29:06;24.15;;;12.23;;
46701;SDS011;33449;50.712;7.124;2023-03-01T01:31:36;19.17;;;12.43;;
46701;SDS011;33449;50.712;7.124;2023-03-01T01:34:07;28.55;;;12.23;;
46701;SDS011;33449;50.712;7.124;2023-03-01T01:36:42;22.95;;;12.65;;
46701;SDS011;33449;50.712;7.124;2023-03-01T01:39:09;19.23;;;11.57;;
46701;SDS011;33449;50.712;7.124;2023-03-01T01:41:40;20.73;;;11.93;;
46701;SDS011;33449;50.712;7.124;2023-03-01T01:44:27;20.85;;;10.32;;
46701;SDS011;33449;50.712;7.124;2023-03-01T01:52:03;22.38;;;11.52;;
46701;SDS011;33449;50.712;7.124;2023-03-01T01:54:43;24.33;;;11.60;;
46701;SDS011;33449;50.712;7.124;2023-03-01T01:57:14;19.98;;;10.25;;
46701;SDS011;33449;50.712;7.124;2023-03-01T01:59:43;21.27;;;11.65;;
46701;SDS011;33449;50.712;7.124;2023-03-01T02:02:11;28.52;;;13.10;;
46701;SDS011;33449;50.712;7.124;2023-03-01T02:04:38;24.20;;;13.73;;
46701;SDS011;33449;50.712;7.124;2023-03-01T02:07:09;28.92;;;12.82;;
46701;SDS011;33449;50.712;7.124;2023-03-01T02:09:41;30.20;;;13.48;;
46701;SDS011;33449;50.712;7.124;2023-03-01T02:12:09;24.23;;;13.00;;
46701;SDS011;33449;50.712;7.124;2023-03-01T02:14:37;32.30;;;13.15;;
46701;SDS011;33449;50.712;7.124;2023-03-01T02:17:04;28.27;;;13.00;;
46701;SDS011;33449;50.712;7.124;2023-03-01T02:22:24;21.10;;;12.10;;
46701;SDS011;33449;50.712;7.124;2023-03-01T02:30:32;22.98;;;12.23;;
46701;SDS011;33449;50.712;7.124;2023-03-01T02:33:03;25.58;;;12.65;;
46701;SDS011;33449;50.712;7.124;2023-03-01T02:35:32;26.05;;;12.70;;
46701;SDS011;33449;50.712;7.124;2023-03-01T02:38:00;23.60;;;12.80;;
46701;SDS011;33449;50.712;7.124;2023-03-01T02:40:29;24.73;;;13.27;;
46701;SDS011;33449;50.712;7.124;2023-03-01T02:42:58;22.67;;;12.00;;
46701;SDS011;33449;50.712;7.124;2023-03-01T02:45:25;26.25;;;13.10;;
46701;SDS011;33449;50.712;7.124;2023-03-01T02:47:54;24.77;;;13.02;;
46701;SDS011;33449;50.712;7.124;2023-03-01T02:50:24;24.98;;;13.07;;
46701;SDS011;33449;50.712;7.124;2023-03-01T02:55:28;25.80;;;11.93;;
46701;SDS011;33449;50.712;7.124;2023-03-01T02:57:56;24.63;;;12.07;;
46701;SDS011;33449;50.712;7.124;2023-03-01T03:00:28;25.77;;;13.35;;
46701;SDS011;33449;50.712;7.124;2023-03-01T03:03:01;25.27;;;12.80;;
46701;SDS011;33449;50.712;7.124;2023-03-01T03:05:29;23.00;;;13.00;;
46701;SDS011;33449;50.712;7.124;2023-03-01T03:07:58;27.48;;;12.43;;
46701;SDS011;33449;50.712;7.124;2023-03-01T03:10:27;22.00;;;12.10;;
46701;SDS011;33449;50.712;7.124;2023-03-01T03:12:57;26.63;;;12.45;;
46701;SDS011;33449;50.712;7.124;2023-03-01T03:17:56;24.13;;;11.85;;
46701;SDS011;33449;50.712;7.124;2023-03-01T03:20:24;28.83;;;13.18;;
46701;SDS011;33449;50.712;7.124;2023-03-01T03:22:53;28.45;;;12.00;;
46701;SDS011;33449;50.712;7.124;2023-03-01T03:25:21;31.13;;;13.38;;
46701;SDS011;33449;50.712;7.124;2023-03-01T03:27:49;23.52;;;12.25;;
46701;SDS011;33449;50.712;7.124;2023-03-01T03:30:23;22.77;;;12.40;;
46701;SDS011;33449;50.712;7.124;2023-03-01T03:32:51;27.48;;;13.07;;
46701;SDS011;33449;50.712;7.124;2023-03-01T03:35:20;23.77;;;12.38;;
46701;SDS011;33449;50.712;7.124;2023-03-01T03:37:47;27.27;;;13.10;;
46701;SDS011;33449;50.712;7.124;2023-03-01T03:40:36;26.73;;;13.13;;
46701;SDS011;33449;50.712;7.124;2023-03-01T03:43:05;30.75;;;12.73;;
46701;SDS011;33449;50.712;7.124;2023-03-01T03:45:32;25.77;;;13.75;;
46701;SDS011;33449;50.712;7.124;2023-03-01T03:48:01;23.83;;;13.43;;
46701;SDS011;33449;50.712;7.124;2023-03-01T03:50:29;26.38;;;13.90;;
46701;SDS011;33449;50.712;7.124;2023-03-01T03:52:56;23.05;;;12.32;;
46701;SDS011;33449;50.712;7.124;2023-03-01T03:55:24;28.77;;;13.82;;
46701;SDS011;33449;50.712;7.124;2023-03-01T03:57:58;27.83;;;13.30;;
46701;SDS011;33449;50.712;7.124;2023-03-01T04:00:28;21.08;;;10.98;;
46701;SDS011;33449;50.712;7.124;2023-03-01T04:02:55;26.67;;;13.10;;
46701;SDS011;33449;50.712;7.124;2023-03-01T04:05:22;26.25;;;14.00;;
46701;SDS011;33449;50.712;7.124;2023-03-01T04:07:50;21.17;;;12.10;;
46701;SDS011;33449;50.712;7.124;2023-03-01T04:10:34;25.85;;;12.48;;
46701;SDS011;33449;50.712;7.124;2023-03-01T04:13:21;23.45;;;12.43;;
46701;SDS011;33449;50.712;7.124;2023-03-01T04:15:49;24.65;;;12.73;;
46701;SDS011;33449;50.712;7.124;2023-03-01T04:18:17;24.13;;;12.27;;
46701;SDS011;33449;50.712;7.124;2023-03-01T04:20:45;29.50;;;12.43;;
46701;SDS011;33449;50.712;7.124;2023-03-01T04:23:14;34.53;;;13.52;;
46701;SDS011;33449;50.712;7.124;2023-03-01T04:25:44;23.95;;;12.13;;
46701;SDS011;33449;50.712;7.124;2023-03-01T04:28:12;20.50;;;11.82;;
46701;SDS011;33449;50.712;7.124;2023-03-01T04:30:39;29.45;;;14.35;;
46701;SDS011;33449;50.712;7.124;2023-03-01T04:33:08;26.27;;;13.18;;
46701;SDS011;33449;50.712;7.124;2023-03-01T04:35:36;24.55;;;13.32;;
46701;SDS011;33449;50.712;7.124;2023-03-01T04:38:06;27.90;;;15.98;;
46701;SDS011;33449;50.712;7.124;2023-03-01T04:40:33;28.67;;;14.03;;
46701;SDS011;33449;50.712;7.124;2023-03-01T04:43:01;25.75;;;14.27;;
46701;SDS011;33449;50.712;7.124;2023-03-01T04:45:31;27.52;;;13.88;;
46701;SDS011;33449;50.712;7.124;2023-03-01T04:48:00;26.27;;;13.30;;
46701;SDS011;33449;50.712;7.124;2023-03-01T04:50:28;26.77;;;12.82;;
46701;SDS011;33449;50.712;7.124;2023-03-01T04:52:56;29.75;;;14.80;;
46701;SDS011;33449;50.712;7.124;2023-03-01T04:55:26;26.35;;;13.68;;
46701;SDS011;33449;50.712;7.124;2023-03-01T04:57:56;24.60;;;12.15;;
46701;SDS011;33449;50.712;7.124;2023-03-01T05:00:23;27.83;;;13.37;;
46701;SDS011;33449;50.712;7.124;2023-03-01T05:02:52;27.45;;;14.15;;
46701;SDS011;33449;50.712;7.124;2023-03-01T05:05:21;26.55;;;14.52;;
46701;SDS011;33449;50.712;7.124;2023-03-01T05:07:54;26.38;;;13.05;;
46701;SDS011;33449;50.712;7.124;2023-03-01T05:10:22;27.33;;;14.60;;
46701;SDS011;33449;50.712;7.124;2023-03-01T05:12:50;29.75;;;14.55;;
46701;SDS011;33449;50.712;7.124;2023-03-01T05:15:18;25.05;;;12.07;;
46701;SDS011;33449;50.712;7.124;2023-03-01T05:17:48;28.63;;;12.95;;
46701;SDS011;33449;50.712;7.124;2023-03-01T05:20:16;25.13;;;12.80;;
46701;SDS011;33449;50.712;7.124;2023-03-01T05:22:49;24.85;;;13.95;;
46701;SDS011;33449;50.712;7.124;2023-03-01T05:25:22;26.88;;;13.35;;
46701;SDS011;33449;50.712;7.124;2023-03-01T05:27:50;26.10;;;14.43;;
46701;SDS011;33449;50.712;7.124;2023-03-01T05:30:20;27.17;;;14.90;;
46701;SDS011;33449;50.712;7.124;2023-03-01T05:32:50;23.70;;;13.40;;
46701;SDS011;33449;50.712;7.124;2023-03-01T05:35:24;29.73;;;14.55;;
46701;SDS011;33449;50.712;7.124;2023-03-01T05:37:51;31.85;;;15.13;;
46701;SDS011;33449;50.712;7.124;2023-03-01T05:42:59;28.80;;;15.32;;
46701;SDS011;33449;50.712;7.124;2023-03-01T05:45:27;29.38;;;15.02;;
46701;SDS011;33449;50.712;7.124;2023-03-01T05:47:58;27.45;;;13.30;;
46701;SDS011;33449;50.712;7.124;2023-03-01T05:50:27;34.63;;;14.77;;
46701;SDS011;33449;50.712;7.124;2023-03-01T05:53:04;32.80;;;15.90;;
46701;SDS011;33449;50.712;7.124;2023-03-01T05:55:32;33.70;;;14.70;;
46701;SDS011;33449;50.712;7.124;2023-03-01T05:58:03;32.17;;;15.53;;
46701;SDS011;33449;50.712;7.124;2023-03-01T06:00:31;27.60;;;13.73;;
46701;SDS011;33449;50.712;7.124;2023-03-01T06:03:00;35.97;;;14.87;;
46701;SDS011;33449;50.712;7.124;2023-03-01T06:05:28;36.13;;;15.63;;
46701;SDS011;33449;50.712;7.124;2023-03-01T06:07:59;26.83;;;14.10;;
46701;SDS011;33449;50.712;7.124;2023-03-01T06:12:57;28.33;;;13.27;;
46701;SDS011;33449;50.712;7.124;2023-03-01T06:15:25;31.85;;;15.40;;
46701;SDS011;33449;50.712;7.124;2023-03-01T06:17:58;29.67;;;14.38;;
46701;SDS011;33449;50.712;7.124;2023-03-01T06:20:26;27.33;;;12.68;;
46701;SDS011;33449;50.712;7.124;2023-03-01T06:22:53;29.47;;;13.57;;
46701;SDS011;33449;50.712;7.124;2023-03-01T06:25:24;32.60;;;14.52;;
46701;SDS011;33449;50.712;7.124;2023-03-01T06:27:59;29.50;;;16.97;;
46701;SDS011;33449;50.712;7.124;2023-03-01T06:30:28;30.75;;;15.40;;
46701;SDS011;33449;50.712;7.124;2023-03-01T06:32:55;26.73;;;15.23;;
46701;SDS011;33449;50.712;7.124;2023-03-01T06:35:26;40.08;;;15.45;;
46701;SDS011;33449;50.712;7.124;2023-03-01T06:40:29;29.70;;;14.60;;
46701;SDS011;33449;50.712;7.124;2023-03-01T06:43:01;37.97;;;15.90;;
46701;SDS011;33449;50.712;7.124;2023-03-01T06:45:32;30.53;;;15.20;;
46701;SDS011;33449;50.712;7.124;2023-03-01T06:48:05;28.55;;;14.48;;
46701;SDS011;33449;50.712;7.124;2023-03-01T06:50:35;31.52;;;15.35;;
46701;SDS011;33449;50.712;7.124;2023-03-01T06:53:02;39.80;;;16.73;;
46701;SDS011;33449;50.712;7.124;2023-03-01T06:55:30;33.22;;;15.13;;
46701;SDS011;33449;50.712;7.124;2023-03-01T06:57:58;25.35;;;14.02;;
46701;SDS011;33449;50.712;7.124;2023-03-01T07:00:28;29.17;;;14.95;;
46701;SDS011;33449;50.712;7.124;2023-03-01T07:02:58;28.77;;;15.60;;
46701;SDS011;33449;50.712;7.124;2023-03-01T07:05:25;42.67;;;17.10;;
46701;SDS011;33449;50.712;7.124;2023-03-01T07:07:53;38.50;;;16.23;;
46701;SDS011;33449;50.712;7.124;2023-03-01T07:10:21;41.33;;;18.02;;
46701;SDS011;33449;50.712;7.124;2023-03-01T07:12:48;39.85;;;17.30;;
46701;SDS011;33449;50.712;7.124;2023-03-01T07:15:15;39.47;;;16.73;;
46701;SDS011;33449;50.712;7.124;2023-03-01T07:17:42;35.03;;;17.15;;
46701;SDS011;33449;50.712;7.124;2023-03-01T07:20:10;32.85;;;16.13;;
46701;SDS011;33449;50.712;7.124;2023-03-01T07:22:39;33.95;;;17.20;;
46701;SDS011;33449;50.712;7.124;2023-03-01T07:25:07;35.03;;;16.13;;
46701;SDS011;33449;50.712;7.124;2023-03-01T07:27:35;33.35;;;15.45;;
46701;SDS011;33449;50.712;7.124;2023-03-01T07:30:02;30.83;;;16.60;;
46701;SDS011;33449;50.712;7.124;2023-03-01T07:32:29;29.55;;;15.88;;
46701;SDS011;33449;50.712;7.124;2023-03-01T07:34:56;30.50;;;14.45;;
46701;SDS011;33449;50.712;7.124;2023-03-01T07:37:23;28.73;;;15.52;;
46701;SDS011;33449;50.712;7.124;2023-03-01T07:39:50;31.20;;;14.65;;
46701;SDS011;33449;50.712;7.124;2023-03-01T07:42:31;29.58;;;14.93;;
46701;SDS011;33449;50.712;7.124;2023-03-01T07:44:58;29.27;;;15.30;;
46701;SDS011;33449;50.712;7.124;2023-03-01T07:47:25;33.00;;;16.25;;
46701;SDS011;33449;50.712;7.124;2023-03-01T07:49:52;37.00;;;15.23;;
46701;SDS011;33449;50.712;7.124;2023-03-01T07:52:22;30.45;;;14.52;;
46701;SDS011;33449;50.712;7.124;2023-03-01T07:54:49;31.88;;;15.10;;
46701;SDS011;33449;50.712;7.124;2023-03-01T07:57:19;31.73;;;16.40;;
46701;SDS011;33449;50.712;7.124;2023-03-01T07:59:47;25.98;;;13.05;;
46701;SDS011;33449;50.712;7.124;2023-03-01T08:02:14;35.88;;;15.93;;
46701;SDS011;33449;50.712;7.124;2023-03-01T08:04:41;33.58;;;16.30;;
46701;SDS011;33449;50.712;7.124;2023-03-01T08:07:09;30.48;;;13.68;;
46701;SDS011;33449;50.712;7.124;2023-03-01T08:09:36;37.45;;;15.40;;
46701;SDS011;33449;50.712;7.124;2023-03-01T08:12:04;30.45;;;14.32;;
46701;SDS011;33449;50.712;7.124;2023-03-01T08:14:31;31.75;;;15.50;;
46701;SDS011;33449;50.712;7.124;2023-03-01T08:16:58;35.28;;;16.25;;
46701;SDS011;33449;50.712;7.124;2023-03-01T08:19:25;26.75;;;15.15;;
46701;SDS011;33449;50.712;7.124;2023-03-01T08:21:57;30.15;;;15.32;;
46701;SDS011;33449;50.712;7.124;2023-03-01T08:24:24;34.38;;;16.95;;
46701;SDS011;33449;50.712;7.124;2023-03-01T08:26:51;36.45;;;16.52;;
46701;SDS011;33449;50.712;7.124;2023-03-01T08:29:18;28.98;;;15.65;;
46701;SDS011;33449;50.712;7.124;2023-03-01T08:31:45;38.00;;;16.52;;
46701;SDS011;33449;50.712;7.124;2023-03-01T08:34:13;27.95;;;13.45;;
46701;SDS011;33449;50.712;7.124;2023-03-01T08:36:53;26.83;;;14.00;;
46701;SDS011;33449;50.712;7.124;2023-03-01T08:39:20;30.55;;;14.77;;
46701;SDS011;33449;50.712;7.124;2023-03-01T08:41:47;32.45;;;15.73;;
46701;SDS011;33449;50.712;7.124;2023-03-01T08:44:15;35.40;;;14.77;;
46701;SDS011;33449;50.712;7.124;2023-03-01T08:46:43;32.75;;;13.82;;
46701;SDS011;33449;50.712;7.124;2023-03-01T08:49:14;25.48;;;14.60;;
46701;SDS011;33449;50.712;7.124;2023-03-01T08:54:19;33.00;;;15.30;;
46701;SDS011;33449;50.712;7.124;2023-03-01T08:56:47;30.23;;;14.73;;
46701;SDS011;33449;50.712;7.124;2023-03-01T08:59:18;29.38;;;13.93;;
46701;SDS011;33449;50.712;7.124;2023-03-01T09:01:59;28.58;;;14.30;;
46701;SDS011;33449;50.712;7.124;2023-03-01T09:07:01;23.38;;;13.35;;
46701;SDS011;33449;50.712;7.124;2023-03-01T09:09:28;29.60;;;15.18;;
46701;SDS011;33449;50.712;7.124;2023-03-01T09:11:55;23.85;;;14.07;;
46701;SDS011;33449;50.712;7.124;2023-03-01T09:14:22;25.90;;;13.27;;
46701;SDS011;33449;50.712;7.124;2023-03-01T09:16:50;28.63;;;14.90;;
46701;SDS011;33449;50.712;7.124;2023-03-01T09:19:17;28.23;;;14.27;;
46701;SDS011;33449;50.712;7.124;2023-03-01T09:24:15;21.05;;;12.40;;
46701;SDS011;33449;50.712;7.124;2023-03-01T09:26:42;23.30;;;12.77;;
46701;SDS011;33449;50.712;7.124;2023-03-01T09:29:13;25.42;;;14.30;;
46701;SDS011;33449;50.712;7.124;2023-03-01T09:31:41;22.70;;;13.00;;
46701;SDS011;33449;50.712;7.124;2023-03-01T09:34:09;21.77;;;13.52;;
46701;SDS011;33449;50.712;7.124;2023-03-01T09:39:10;27.45;;;12.25;;
46701;SDS011;33449;50.712;7.124;2023-03-01T09:46:41;20.05;;;12.20;;
46701;SDS011;33449;50.712;7.124;2023-03-01T09:49:11;23.42;;;13.35;;
46701;SDS011;33449;50.712;7.124;2023-03-01T09:54:09;20.42;;;12.15;;
46701;SDS011;33449;50.712;7.124;2023-03-01T09:56:37;19.80;;;11.90;;
46701;SDS011;33449;50.712;7.124;2023-03-01T10:01:51;23.30;;;11.70;;
46701;SDS011;33449;50.712;7.124;2023-03-01T10:20:10;23.02;;;11.32;;
46701;SDS011;33449;50.712;7.124;2023-03-01T10:22:41;21.23;;;12.43;;
46701;SDS011;33449;50.712;7.124;2023-03-01T10:25:08;23.92;;;12.30;;
46701;SDS011;33449;50.712;7.124;2023-03-01T10:27:43;19.50;;;11.77;;
46701;SDS011;33449;50.712;7.124;2023-03-01T10:35:57;22.15;;;11.55;;
46701;SDS011;33449;50.712;7.124;2023-03-01T10:38:26;21.05;;;12.07;;
46701;SDS011;33449;50.712;7.124;2023-03-01T10:43:24;17.42;;;10.68;;
46701;SDS011;33449;50.712;7.124;2023-03-01T10:45:55;21.05;;;11.52;;
46701;SDS011;33449;50.712;7.124;2023-03-01T10:58:32;21.17;;;11.02;;
46701;SDS011;33449;50.712;7.124;2023-03-01T11:03:28;19.58;;;11.45;;
46701;SDS011;33449;50.712;7.124;2023-03-01T11:14:17;18.95;;;11.60;;
46701;SDS011;33449;50.712;7.124;2023-03-01T11:16:59;19.40;;;11.70;;
46701;SDS011;33449;50.712;7.124;2023-03-01T11:19:27;21.38;;;11.52;;
46701;SDS011;33449;50.712;7.124;2023-03-01T11:21:59;19.20;;;10.73;;
46701;SDS011;33449;50.712;7.124;2023-03-01T11:26:59;23.48;;;10.77;;
46701;SDS011;33449;50.712;7.124;2023-03-01T11:29:45;21.98;;;10.93;;
46701;SDS011;33449;50.712;7.124;2023-03-01T11:32:14;18.83;;;10.00;;
46701;SDS011;33449;50.712;7.124;2023-03-01T11:37:15;15.45;;;9.73;;
46701;SDS011;33449;50.712;7.124;2023-03-01T11:39:47;15.52;;;10.05;;
46701;SDS011;33449;50.712;7.124;2023-03-01T11:47:55;20.50;;;11.32;;
46701;SDS011;33449;50.712;7.124;2023-03-01T11:50:56;18.55;;;9.02;;
46701;SDS011;33449;50.712;7.124;2023-03-01T11:59:02;16.88;;;9.98;;
46701;SDS011;33449;50.712;7.124;2023-03-01T12:11:53;16.08;;;9.05;;
46701;SDS011;33449;50.712;7.124;2023-03-01T12:27:54;18.67;;;9.85;;
46701;SDS011;33449;50.712;7.124;2023-03-01T12:52:59;13.38;;;6.78;;
46701;SDS011;33449;50.712;7.124;2023-03-01T12:55:29;15.23;;;7.50;;
46701;SDS011;33449;50.712;7.124;2023-03-01T13:03:38;14.98;;;6.78;;
46701;SDS011;33449;50.712;7.124;2023-03-01T13:09:09;12.25;;;6.93;;
46701;SDS011;33449;50.712;7.124;2023-03-01T13:11:28;14.95;;;6.68;;
46701;SDS011;33449;50.712;7.124;2023-03-01T13:16:41;11.57;;;6.15;;
46701;SDS011;33449;50.712;7.124;2023-03-01T13:19:13;10.93;;;5.88;;
46701;SDS011;33449;50.712;7.124;2023-03-01T13:21:45;12.15;;;5.85;;
46701;SDS011;33449;50.712;7.124;2023-03-01T13:32:19;12.38;;;6.55;;
46701;SDS011;33449;50.712;7.124;2023-03-01T13:34:54;13.40;;;6.88;;
46701;SDS011;33449;50.712;7.124;2023-03-01T13:37:22;13.98;;;7.07;;
46701;SDS011;33449;50.712;7.124;2023-03-01T13:42:29;10.70;;;6.05;;
46701;SDS011;33449;50.712;7.124;2023-03-01T13:44:57;11.15;;;6.50;;
46701;SDS011;33449;50.712;7.124;2023-03-01T13:47:25;11.85;;;5.95;;
46701;SDS011;33449;50.712;7.124;2023-03-01T13:49:55;16.73;;;6.35;;
46701;SDS011;33449;50.712;7.124;2023-03-01T13:52:48;12.20;;;6.00;;
46701;SDS011;33449;50.712;7.124;2023-03-01T13:55:17;11.48;;;5.82;;
46701;SDS011;33449;50.712;7.124;2023-03-01T13:57:48;10.25;;;6.07;;
46701;SDS011;33449;50.712;7.124;2023-03-01T14:05:20;12.05;;;5.63;;
46701;SDS011;33449;50.712;7.124;2023-03-01T14:07:50;12.57;;;6.38;;
46701;SDS011;33449;50.712;7.124;2023-03-01T14:10:17;9.30;;;5.88;;
46701;SDS011;33449;50.712;7.124;2023-03-01T14:12:47;11.10;;;6.50;;
46701;SDS011;33449;50.712;7.124;2023-03-01T14:17:52;13.10;;;6.80;;
46701;SDS011;33449;50.712;7.124;2023-03-01T14:20:22;10.45;;;6.65;;
46701;SDS011;33449;50.712;7.124;2023-03-01T14:23:12;14.75;;;6.90;;
46701;SDS011;33449;50.712;7.124;2023-03-01T14:25:45;15.43;;;7.30;;
46701;SDS011;33449;50.712;7.124;2023-03-01T14:28:16;15.63;;;6.65;;
46701;SDS011;33449;50.712;7.124;2023-03-01T14:30:46;13.40;;;6.72;;
46701;SDS011;33449;50.712;7.124;2023-03-01T14:33:24;11.70;;;6.53;;
46701;SDS011;33449;50.712;7.124;2023-03-01T14:36:13;10.85;;;6.57;;
46701;SDS011;33449;50.712;7.124;2023-03-01T14:43:41;13.15;;;6.43;;
46701;SDS011;33449;50.712;7.124;2023-03-01T14:46:26;12.48;;;7.32;;
46701;SDS011;33449;50.712;7.124;2023-03-01T14:48:57;11.10;;;7.10;;
46701;SDS011;33449;50.712;7.124;2023-03-01T14:51:25;10.80;;;7.55;;
46701;SDS011;33449;50.712;7.124;2023-03-01T14:54:31;11.35;;;6.28;;
46701;SDS011;33449;50.712;7.124;2023-03-01T14:57:24;10.07;;;6.03;;
46701;SDS011;33449;50.712;7.124;2023-03-01T14:59:59;10.02;;;5.20;;
46701;SDS011;33449;50.712;7.124;2023-03-01T15:05:01;8.27;;;5.10;;
46701;SDS011;33449;50.712;7.124;2023-03-01T15:10:24;7.88;;;4.82;;
46701;SDS011;33449;50.712;7.124;2023-03-01T15:12:52;8.25;;;5.57;;
46701;SDS011;33449;50.712;7.124;2023-03-01T15:17:56;10.65;;;5.90;;
46701;SDS011;33449;50.712;7.124;2023-03-01T15:22:55;8.32;;;5.35;;
46701;SDS011;33449;50.712;7.124;2023-03-01T15:25:26;7.60;;;4.32;;
46701;SDS011;33449;50.712;7.124;2023-03-01T15:27:54;8.73;;;5.28;;
46701;SDS011;33449;50.712;7.124;2023-03-01T15:40:51;6.47;;;4.22;;
46701;SDS011;33449;50.712;7.124;2023-03-01T15:43:41;7.95;;;4.22;;
46701;SDS011;33449;50.712;7.124;2023-03-01T15:46:28;11.63;;;4.97;;
46701;SDS011;33449;50.712;7.124;2023-03-01T15:48:57;7.78;;;4.35;;
46701;SDS011;33449;50.712;7.124;2023-03-01T15:51:34;8.30;;;4.07;;
46701;SDS011;33449;50.712;7.124;2023-03-01T15:54:06;11.15;;;4.22;;
46701;SDS011;33449;50.712;7.124;2023-03-01T15:56:39;8.10;;;4.70;;
46701;SDS011;33449;50.712;7.124;2023-03-01T16:01:52;7.43;;;4.30;;
46701;SDS011;33449;50.712;7.124;2023-03-01T16:04:19;14.10;;;4.68;;
46701;SDS011;33449;50.712;7.124;2023-03-01T16:06:47;6.18;;;3.97;;
46701;SDS011;33449;50.712;7.124;2023-03-01T16:09:21;8.75;;;4.10;;
46701;SDS011;33449;50.712;7.124;2023-03-01T16:16:46;9.65;;;5.18;;
46701;SDS011;33449;50.712;7.124;2023-03-01T16:19:14;7.32;;;4.00;;
46701;SDS011;33449;50.712;7.124;2023-03-01T16:21:42;9.13;;;4.30;;
46701;SDS011;33449;50.712;7.124;2023-03-01T16:24:12;7.30;;;4.30;;
46701;SDS011;33449;50.712;7.124;2023-03-01T16:26:40;7.03;;;3.92;;
46701;SDS011;33449;50.712;7.124;2023-03-01T16:34:47;9.00;;;4.55;;
46701;SDS011;33449;50.712;7.124;2023-03-01T16:37:15;8.60;;;4.25;;
46701;SDS011;33449;50.712;7.124;2023-03-01T16:39:42;6.93;;;4.43;;
46701;SDS011;33449;50.712;7.124;2023-03-01T16:42:09;7.93;;;4.47;;
46701;SDS011;33449;50.712;7.124;2023-03-01T16:44:36;10.27;;;5.65;;
46701;SDS011;33449;50.712;7.124;2023-03-01T16:49:37;13.18;;;6.75;;
46701;SDS011;33449;50.712;7.124;2023-03-01T16:52:04;12.45;;;6.57;;
46701;SDS011;33449;50.712;7.124;2023-03-01T16:54:33;13.70;;;7.20;;
46701;SDS011;33449;50.712;7.124;2023-03-01T16:57:03;14.35;;;6.50;;
46701;SDS011;33449;50.712;7.124;2023-03-01T16:59:30;15.27;;;7.45;;
46701;SDS011;33449;50.712;7.124;2023-03-01T17:04:35;12.95;;;6.78;;
46701;SDS011;33449;50.712;7.124;2023-03-01T17:07:02;18.65;;;6.57;;
46701;SDS011;33449;50.712;7.124;2023-03-01T17:09:29;14.95;;;6.85;;
46701;SDS011;33449;50.712;7.124;2023-03-01T17:11:56;14.43;;;6.90;;
46701;SDS011;33449;50.712;7.124;2023-03-01T17:14:23;17.60;;;7.95;;
46701;SDS011;33449;50.712;7.124;2023-03-01T17:19:45;10.88;;;6.05;;
46701;SDS011;33449;50.712;7.124;2023-03-01T17:22:17;13.50;;;7.05;;
46701;SDS011;33449;50.712;7.124;2023-03-01T17:24:47;18.10;;;7.43;;
46701;SDS011;33449;50.712;7.124;2023-03-01T17:27:15;16.98;;;6.70;;
46701;SDS011;33449;50.712;7.124;2023-03-01T17:29:54;15.93;;;6.57;;
46701;SDS011;33449;50.712;7.124;2023-03-01T17:32:24;11.68;;;5.95;;
46701;SDS011;33449;50.712;7.124;2023-03-01T17:37:28;9.50;;;5.13;;
46701;SDS011;33449;50.712;7.124;2023-03-01T17:39:55;13.15;;;6.32;;
46701;SDS011;33449;50.712;7.124;2023-03-01T17:42:22;13.13;;;5.47;;
46701;SDS011;33449;50.712;7.124;2023-03-01T17:44:49;10.95;;;5.03;;
46701;SDS011;33449;50.712;7.124;2023-03-01T17:47:17;11.35;;;5.22;;
46701;SDS011;33449;50.712;7.124;2023-03-01T17:49:44;9.48;;;5.25;;
46701;SDS011;33449;50.712;7.124;2023-03-01T17:52:11;11.30;;;4.88;;
46701;SDS011;33449;50.712;7.124;2023-03-01T17:54:38;10.82;;;4.95;;
46701;SDS011;33449;50.712;7.124;2023-03-01T17:59:36;9.65;;;4.68;;
46701;SDS011;33449;50.712;7.124;2023-03-01T18:02:03;9.18;;;5.30;;
46701;SDS011;33449;50.712;7.124;2023-03-01T18:04:30;13.98;;;6.15;;
46701;SDS011;33449;50.712;7.124;2023-03-01T18:06:58;10.63;;;6.35;;
46701;SDS011;33449;50.712;7.124;2023-03-01T18:09:27;11.27;;;5.53;;
46701;SDS011;33449;50.712;7.124;2023-03-01T18:11:55;14.68;;;6.80;;
46701;SDS011;33449;50.712;7.124;2023-03-01T18:14:22;12.93;;;5.82;;
46701;SDS011;33449;50.712;7.124;2023-03-01T18:16:50;11.38;;;5.55;;
46701;SDS011;33449;50.712;7.124;2023-03-01T18:19:19;12.70;;;5.95;;
46701;SDS011;33449;50.712;7.124;2023-03-01T18:21:46;13.30;;;6.53;;
46701;SDS011;33449;50.712;7.124;2023-03-01T18:24:13;12.00;;;6.10;;
46701;SDS011;33449;50.712;7.124;2023-03-01T18:26:40;13.70;;;6.50;;
46701;SDS011;33449;50.712;7.124;2023-03-01T18:29:07;13.27;;;5.95;;
46701;SDS011;33449;50.712;7.124;2023-03-01T18:34:12;10.57;;;6.13;;
46701;SDS011;33449;50.712;7.124;2023-03-01T18:36:39;11.70;;;6.47;;
46701;SDS011;33449;50.712;7.124;2023-03-01T18:39:09;11.68;;;5.30;;
46701;SDS011;33449;50.712;7.124;2023-03-01T18:41:36;12.90;;;6.57;;
46701;SDS011;33449;50.712;7.124;2023-03-01T18:44:03;13.27;;;6.60;;